CheckWX is a tool to help pilots better visualize weather data.  It is not intended as a substitute for an official pre-flight weather briefing.

23:23:20 UTC

KHHF METAR
Hemphill County Airport
Canadian, Texas, USA
Current

8 mins ago

KHHF 162315Z AUTO 18013KT 10SM CLR 17/02 A2991 RMK AO2 T01660022
Observed
Nov-16 @ 23:15 UTC
Wind
  • 180° at 13 KTS
Visibility
10 SM
Flight Rules
VFR
Cloud Levels
  • Clear skies
Temperature
17°C / 63°F
Dewpoint
C / 36°F
Humidity
37%
Altimeter
29.91" Hg
Pressure
1012.92 hPa
Previous

28 mins ago

KHHF 162255Z AUTO 18011G16KT 10SM CLR 17/02 A2991 RMK AO2 T01700020
Observed
Nov-16 @ 22:55 UTC
Wind
  • 180° at 11 KTS
  • Gusting to 16 KTS
Visibility
10 SM
Flight Rules
VFR
Cloud Levels
  • Clear skies
Temperature
17°C / 63°F
Dewpoint
C / 36°F
Humidity
37%
Altimeter
29.91" Hg
Pressure
1012.92 hPa
Previous

48 mins ago

KHHF 162235Z AUTO 18012G17KT 10SM CLR 18/02 A2991 RMK AO2 T01770020
Observed
Nov-16 @ 22:35 UTC
Wind
  • 180° at 12 KTS
  • Gusting to 17 KTS
Visibility
10 SM
Flight Rules
VFR
Cloud Levels
  • Clear skies
Temperature
18°C / 64°F
Dewpoint
C / 36°F
Humidity
34%
Altimeter
29.91" Hg
Pressure
1012.92 hPa